Time;durP1;ratioP1;P1;durP2;ratioP2;P2;SDS_P1;SDS_P2;PMS_P1;PMS_P2;Temp;Humidity;BMP_temperature;BMP_pressure;BME280_temperature;BME280_humidity;BME280_pressure;Samples;Min_cycle;Max_cycle;Signal;HPM_P1;HPM_P2
2021/05/28 07:31:31;;;;;;;8.35;4.75;;;;;;;;;;5103797;27;20109;-75
2021/05/28 07:33:57;;;;;;;9.30;4.78;;;;;;;;;;5083164;28;20043;-76
2021/05/28 07:36:23;;;;;;;8.82;4.57;;;;;;;;;;5085788;28;20024;-76
2021/05/28 07:38:50;;;;;;;6.78;4.72;;;;;;;;;;5084656;28;20016;-76
2021/05/28 07:41:16;;;;;;;10.60;4.40;;;;;;;;;;5083517;28;20465;-76
2021/05/28 07:43:42;;;;;;;8.63;4.63;;;;;;;;;;5087747;28;20048;-76
2021/05/28 07:46:08;;;;;;;8.98;4.63;;;;;;;;;;5074069;28;20427;-75
2021/05/28 07:48:34;;;;;;;8.40;4.05;;;;;;;;;;5068786;28;20025;-76
2021/05/28 07:51:00;;;;;;;6.93;3.83;;;;;;;;;;5067846;28;20032;-75
2021/05/28 07:53:27;;;;;;;8.52;3.70;;;;;;;;;;5068802;28;20401;-76
2021/05/28 07:55:54;;;;;;;8.13;3.85;;;;;;;;;;5068568;28;20017;-76
2021/05/28 07:58:20;;;;;;;5.50;3.20;;;;;;;;;;5085368;28;20055;-76
2021/05/28 08:00:47;;;;;;;7.82;3.80;;;;;;;;;;5078773;28;20100;-76
2021/05/28 08:03:13;;;;;;;7.22;3.33;;;;;;;;;;5088471;28;20024;-76
2021/05/28 08:05:40;;;;;;;7.68;2.75;;;;;;;;;;5088472;28;20480;-76
2021/05/28 08:08:09;;;;;;;5.38;3.00;;;;;;;;;;5088589;28;20025;-76
2021/05/28 08:10:36;;;;;;;4.47;2.90;;;;;;;;;;5086373;28;20035;-77
2021/05/28 08:13:02;;;;;;;8.15;3.03;;;;;;;;;;5087057;28;20054;-76
2021/05/28 08:15:30;;;;;;;5.88;3.40;;;;;;;;;;5086951;28;20016;-75
2021/05/28 08:17:58;;;;;;;5.97;2.92;;;;;;;;;;5088622;28;20023;-76
2021/05/28 08:20:24;;;;;;;7.80;3.80;;;;;;;;;;5087729;28;20086;-77
2021/05/28 08:22:52;;;;;;;5.82;2.63;;;;;;;;;;5088507;28;20031;-77
2021/05/28 08:25:18;;;;;;;7.55;3.13;;;;;;;;;;5087308;28;20047;-77
2021/05/28 08:27:44;;;;;;;6.47;3.00;;;;;;;;;;5076852;28;20029;-77
2021/05/28 08:30:10;;;;;;;4.70;2.90;;;;;;;;;;5080114;28;20119;-77
2021/05/28 08:32:36;;;;;;;6.65;3.10;;;;;;;;;;5074380;28;20110;-75
2021/05/28 08:35:03;;;;;;;6.22;3.22;;;;;;;;;;5067570;28;20491;-76
2021/05/28 08:37:29;;;;;;;7.35;3.10;;;;;;;;;;5067500;28;20017;-75
2021/05/28 08:39:55;;;;;;;8.60;3.08;;;;;;;;;;5087306;28;20711;-76
2021/05/28 08:42:21;;;;;;;4.93;2.60;;;;;;;;;;5077237;28;20039;-76
2021/05/28 08:44:48;;;;;;;3.75;2.63;;;;;;;;;;5074148;28;20444;-76
2021/05/28 08:47:16;;;;;;;6.88;3.08;;;;;;;;;;5074378;28;20024;-75
2021/05/28 08:49:46;;;;;;;5.65;3.33;;;;;;;;;;5070185;28;20025;-75
2021/05/28 08:52:12;;;;;;;7.80;3.45;;;;;;;;;;5054263;28;20100;-75
2021/05/28 08:54:38;;;;;;;7.05;3.78;;;;;;;;;;5054492;28;20132;-75
2021/05/28 08:57:04;;;;;;;6.38;3.10;;;;;;;;;;5053433;28;20400;-75
2021/05/28 08:59:30;;;;;;;6.28;2.78;;;;;;;;;;5053291;28;20029;-76
2021/05/28 09:01:56;;;;;;;5.68;3.17;;;;;;;;;;5067881;28;20405;-76
2021/05/28 09:04:22;;;;;;;4.82;2.80;;;;;;;;;;5085545;28;20035;-76
2021/05/28 09:06:49;;;;;;;3.70;2.50;;;;;;;;;;5095141;28;20092;-76
2021/05/28 09:09:15;;;;;;;9.23;2.92;;;;;;;;;;5063813;28;20513;-76
2021/05/28 09:11:50;;;;;;;4.72;2.70;;;;;;;;;;5053749;28;20086;-75
2021/05/28 09:14:36;;;;;;;5.40;2.42;;;;;;;;;;5053711;28;20469;-76
2021/05/28 09:17:03;;;;;;;4.07;2.50;;;;;;;;;;5049628;28;20037;-75
2021/05/28 09:19:30;;;;;;;5.28;2.60;;;;;;;;;;5072794;28;20031;-76
2021/05/28 09:22:01;;;;;;;7.13;2.67;;;;;;;;;;5075909;28;20098;-75
2021/05/28 09:24:31;;;;;;;5.28;2.88;;;;;;;;;;5083426;28;20373;-75
2021/05/28 09:27:18;;;;;;;6.18;3.53;;;;;;;;;;5079323;28;20024;-76
2021/05/28 09:30:03;;;;;;;3.90;2.30;;;;;;;;;;5077222;28;20140;-76
2021/05/28 09:32:30;;;;;;;4.22;2.50;;;;;;;;;;5071970;28;20024;-77
2021/05/28 09:34:56;;;;;;;3.85;2.22;;;;;;;;;;5079950;28;20022;-76
2021/05/28 09:37:40;;;;;;;3.97;2.28;;;;;;;;;;5084091;28;20548;-76
2021/05/28 09:40:08;;;;;;;3.80;1.90;;;;;;;;;;5084269;28;20157;-75
2021/05/28 09:42:51;;;;;;;7.85;2.05;;;;;;;;;;5078911;28;20614;-75
2021/05/28 09:45:17;;;;;;;;;;;;;;;;;;5088995;28;20032;-77
2021/05/28 09:47:43;;;;;;;3.90;2.03;;;;;;;;;;5082777;28;20057;-76
2021/05/28 09:50:13;;;;;;;4.53;2.30;;;;;;;;;;5082333;28;20369;-77
2021/05/28 09:52:39;;;;;;;6.00;2.40;;;;;;;;;;5077245;28;20024;-76
2021/05/28 09:55:07;;;;;;;6.25;3.13;;;;;;;;;;5073702;28;20031;-76
2021/05/28 09:57:37;;;;;;;4.15;1.80;;;;;;;;;;5080329;28;20052;-77
2021/05/28 10:00:08;;;;;;;3.58;2.05;;;;;;;;;;5078615;28;20028;-76
2021/05/28 10:02:43;;;;;;;6.82;1.80;;;;;;;;;;5079353;28;20024;-77
2021/05/28 10:05:10;;;;;;;5.90;2.28;;;;;;;;;;5075456;28;20149;-76
2021/05/28 10:07:39;;;;;;;5.55;2.60;;;;;;;;;;5075086;28;20749;-77
2021/05/28 10:10:06;;;;;;;4.50;1.92;;;;;;;;;;5080851;28;20075;-76
2021/05/28 10:12:32;;;;;;;3.28;2.05;;;;;;;;;;5085694;28;20020;-77
2021/05/28 10:14:58;;;;;;;5.63;2.20;;;;;;;;;;5085933;28;20150;-77
2021/05/28 10:17:24;;;;;;;3.45;2.10;;;;;;;;;;5080045;28;20539;-76
2021/05/28 10:19:51;;;;;;;5.05;2.10;;;;;;;;;;5086820;28;20036;-77
2021/05/28 10:22:17;;;;;;;3.33;1.75;;;;;;;;;;5072765;28;20058;-76
2021/05/28 10:24:44;;;;;;;7.90;1.70;;;;;;;;;;5081171;28;20082;-77
2021/05/28 10:27:10;;;;;;;3.90;2.10;;;;;;;;;;5073489;28;20025;-77
2021/05/28 10:29:39;;;;;;;9.73;2.70;;;;;;;;;;5079623;28;20087;-78
2021/05/28 10:32:12;;;;;;;5.03;2.15;;;;;;;;;;5079213;28;20124;-77
2021/05/28 10:34:58;;;;;;;4.63;2.00;;;;;;;;;;5089795;28;20038;-77
2021/05/28 10:37:30;;;;;;;4.03;1.80;;;;;;;;;;5087529;28;20024;-76
2021/05/28 10:39:56;;;;;;;4.18;1.45;;;;;;;;;;5087493;28;20021;-78
2021/05/28 10:42:22;;;;;;;4.20;1.40;;;;;;;;;;5082667;28;20055;-77
2021/05/28 10:44:48;;;;;;;3.53;1.45;;;;;;;;;;5080776;28;20024;-78
2021/05/28 10:47:14;;;;;;;2.00;1.13;;;;;;;;;;5088042;28;20024;-78
2021/05/28 10:49:42;;;;;;;3.08;1.15;;;;;;;;;;5085971;28;20535;-75
2021/05/28 10:52:09;;;;;;;3.83;1.40;;;;;;;;;;5084255;28;20102;-76
2021/05/28 10:54:36;;;;;;;3.05;1.80;;;;;;;;;;5081990;28;20027;-76
2021/05/28 10:57:24;;;;;;;3.75;1.77;;;;;;;;;;5085769;28;20074;-76
2021/05/28 10:59:53;;;;;;;3.20;1.50;;;;;;;;;;5073236;28;20040;-76
2021/05/28 11:02:37;;;;;;;3.65;1.55;;;;;;;;;;5074309;28;20529;-76
2021/05/28 11:05:04;;;;;;;2.03;1.08;;;;;;;;;;5070697;28;20029;-75
2021/05/28 11:07:42;;;;;;;1.98;1.10;;;;;;;;;;5065544;28;20078;-77
2021/05/28 11:10:18;;;;;;;3.80;1.40;;;;;;;;;;5059877;28;20150;-77
2021/05/28 11:12:44;;;;;;;2.97;0.95;;;;;;;;;;5062587;28;20017;-76
2021/05/28 11:15:15;;;;;;;1.73;0.70;;;;;;;;;;5069457;28;20103;-76
2021/05/28 11:17:54;;;;;;;3.03;1.00;;;;;;;;;;5082024;28;20398;-76
2021/05/28 11:20:29;;;;;;;0.90;0.63;;;14.50;99.90;;;;;;5068628;28;20059;-76
2021/05/28 11:22:56;;;;;;;2.50;0.95;;;26.90;60.10;;;;;;5074982;28;20024;-77
2021/05/28 11:25:23;;;;;;;3.67;1.50;;;;;;;;;;5067499;28;20087;-76
2021/05/28 11:28:06;;;;;;;1.92;1.00;;;27.50;57.90;;;;;;5075396;28;20029;-76
2021/05/28 11:30:54;;;;;;;2.97;1.17;;;27.70;60.80;;;;;;5079130;28;20032;-77
2021/05/28 11:33:41;;;;;;;1.85;0.98;;;27.10;59.20;;;;;;5071611;28;20365;-76
2021/05/28 11:36:41;;;;;;;1.85;1.23;;;25.10;60.30;;;;;;5071712;28;20370;-78
2021/05/28 11:39:10;;;;;;;3.72;1.05;;;23.60;65.60;;;;;;5070918;28;20039;-78
2021/05/28 11:42:03;;;;;;;3.17;1.10;;;22.60;68.10;;;;;;5071189;28;20500;-77
2021/05/28 11:44:32;;;;;;;1.88;1.17;;;22.00;70.50;;;;;;5070715;28;20108;-77
2021/05/28 11:46:59;;;;;;;3.60;1.25;;;21.70;72.30;;;;;;5070323;28;20025;-77
2021/05/28 11:49:25;;;;;;;4.30;1.42;;;21.50;73.00;;;;;;5070547;28;20548;-77
2021/05/28 11:52:05;;;;;;;1.73;0.95;;;21.40;72.70;;;;;;5071222;28;20017;-77
2021/05/28 11:54:33;;;;;;;4.60;1.00;;;21.20;73.20;;;;;;5066138;28;20020;-76
2021/05/28 11:57:09;;;;;;;1.67;1.00;;;21.00;74.60;;;;;;5069198;28;20108;-77
2021/05/28 11:59:57;;;;;;;2.53;1.00;;;21.20;73.70;;;;;;5054683;28;20044;-78
2021/05/28 12:02:52;;;;;;;1.30;0.75;;;21.30;73.70;;;;;;5072245;28;20032;-76
2021/05/28 12:05:42;;;;;;;3.78;1.00;;;21.70;72.70;;;;;;5069089;28;20067;-76
2021/05/28 12:08:10;;;;;;;1.95;1.10;;;21.90;73.10;;;;;;5071105;28;20040;-76
2021/05/28 12:10:39;;;;;;;1.77;0.90;;;22.40;72.20;;;;;;5071829;28;20099;-77
2021/05/28 12:13:11;;;;;;;4.00;0.95;;;23.70;68.00;;;;;;5070195;28;20074;-76
2021/05/28 12:15:39;;;;;;;1.85;0.80;;;24.10;66.50;;;;;;5070519;28;20497;-76
2021/05/28 12:18:34;;;;;;;5.20;1.00;;;23.70;64.30;;;;;;5075238;28;20071;-76
2021/05/28 12:21:05;;;;;;;2.40;0.90;;;22.40;68.50;;;;;;5073859;28;20028;-77
2021/05/28 12:23:34;;;;;;;2.08;1.15;;;22.10;72.10;;;;;;5075161;28;20579;-77
2021/05/28 12:26:09;;;;;;;2.13;1.33;;;22.40;70.70;;;;;;5075817;28;20036;-77
2021/05/28 12:28:39;;;;;;;3.45;1.45;;;22.10;70.50;;;;;;5074912;28;20031;-77
2021/05/28 12:31:10;;;;;;;1.83;0.90;;;21.70;73.30;;;;;;5076453;28;20514;-77
2021/05/28 12:33:45;;;;;;;2.85;0.68;;;21.70;70.20;;;;;;5076580;28;20069;-77
2021/05/28 12:36:13;;;;;;;2.30;1.00;;;21.80;71.10;;;;;;5075789;28;20032;-77
2021/05/28 12:38:41;;;;;;;1.25;0.70;;;22.90;71.00;;;;;;5057244;28;20029;-77
2021/05/28 12:41:16;;;;;;;1.10;0.50;;;23.60;63.40;;;;;;5071240;28;20552;-77
2021/05/28 12:43:44;;;;;;;6.50;1.02;;;23.50;65.50;;;;;;5073971;28;20086;-77
2021/05/28 12:46:34;;;;;;;2.13;1.00;;;23.40;67.00;;;;;;5075026;28;20021;-77
2021/05/28 12:49:11;;;;;;;2.33;0.95;;;22.30;69.10;;;;;;5074819;28;20052;-78
2021/05/28 12:51:42;;;;;;;2.20;1.10;;;21.70;70.60;;;;;;5071435;28;20097;-77
2021/05/28 12:54:19;;;;;;;1.55;0.95;;;21.40;72.70;;;;;;5053986;28;20075;-77
2021/05/28 12:56:45;;;;;;;5.88;1.00;;;21.70;71.20;;;;;;5055018;28;20029;-75
2021/05/28 12:59:26;;;;;;;1.58;0.85;;;21.90;72.50;;;;;;5071276;28;20044;-76
2021/05/28 13:01:54;;;;;;;3.15;1.02;;;21.70;73.20;;;;;;5082205;28;20017;-76
2021/05/28 13:04:21;;;;;;;3.10;0.95;;;21.60;73.80;;;;;;5076769;28;20089;-76
2021/05/28 13:06:51;;;;;;;1.42;0.70;;;21.60;73.10;;;;;;5093818;28;20024;-75
2021/05/28 13:09:25;;;;;;;3.08;0.90;;;21.90;72.00;;;;;;5074515;28;20029;-76
2021/05/28 13:11:59;;;;;;;2.53;1.20;;;22.20;71.80;;;;;;5073732;28;20119;-78
2021/05/28 13:14:35;;;;;;;3.75;1.00;;;22.60;71.30;;;;;;5074281;28;20027;-76
2021/05/28 13:17:32;;;;;;;5.43;1.10;;;23.10;68.40;;;;;;5073671;28;20541;-77
2021/05/28 13:20:13;;;;;;;2.58;0.82;;;23.60;67.90;;;;;;5072946;28;20078;-75
2021/05/28 13:22:38;;;;;;;2.80;0.80;;;23.80;68.30;;;;;;5074510;28;20025;-76
2021/05/28 13:25:34;;;;;;;1.42;0.85;;;24.00;67.40;;;;;;5072611;28;20021;-73
2021/05/28 13:28:22;;;;;;;3.17;0.75;;;24.10;68.10;;;;;;5070941;28;20046;-72
